Time;durP1;ratioP1;P1;durP2;ratioP2;P2;SDS_P1;SDS_P2;PMS_P1;PMS_P2;Temp;Humidity;BMP_temperature;BMP_pressure;BME280_temperature;BME280_humidity;BME280_pressure;Samples;Min_cycle;Max_cycle;Signal;HPM_P1;HPM_P2
2023/10/18 00:01:09;;;;;;;20.30;10.77;;;;;;;2.61;100.00;100769.61;1451681;89;22306;-79
2023/10/18 00:03:36;;;;;;;15.93;10.00;;;;;;;2.60;100.00;100775.78;1445666;90;21885;-78
2023/10/18 00:06:15;;;;;;;15.80;10.17;;;;;;;2.58;100.00;100764.56;1443788;90;22008;-79
2023/10/18 00:08:41;;;;;;;16.43;10.37;;;;;;;2.58;100.00;100764.56;1451303;89;21851;-79
2023/10/18 00:11:08;;;;;;;13.07;9.47;;;;;;;2.56;100.00;100766.45;1449271;90;22361;-78
2023/10/18 00:13:34;;;;;;;18.17;10.90;;;;;;;2.56;100.00;100766.45;1453630;90;21864;-78
2023/10/18 00:16:03;;;;;;;20.83;11.70;;;;;;;2.49;100.00;100758.56;1440960;90;21730;-80
2023/10/18 00:18:29;;;;;;;17.93;10.47;;;;;;;2.45;100.00;100757.07;1455525;89;22617;-79
2023/10/18 00:21:01;;;;;;;18.77;10.73;;;;;;;2.42;100.00;100749.41;1438009;90;22784;-79
2023/10/18 00:23:30;;;;;;;16.67;9.87;;;;;;;2.37;100.00;100753.58;1455013;90;21719;-80
2023/10/18 00:25:59;;;;;;;14.07;9.00;;;;;;;2.35;100.00;100750.20;1455205;90;21837;-81
2023/10/18 00:28:28;;;;;;;15.37;9.50;;;;;;;2.35;100.00;100750.20;1450360;90;21938;-79
2023/10/18 00:30:54;;;;;;;14.70;9.20;;;;;;;2.30;100.00;100755.31;1451318;90;21914;-81
2023/10/18 00:33:20;;;;;;;20.60;10.77;;;;;;;2.21;100.00;100760.12;1446344;90;22603;-81
2023/10/18 00:35:47;;;;;;;13.70;9.57;;;;;;;2.21;100.00;100760.12;1454342;90;22052;-80
2023/10/18 00:38:19;;;;;;;17.60;9.43;;;;;;;2.21;100.00;100756.67;1452703;90;21754;-78
2023/10/18 00:40:50;;;;;;;20.87;11.03;;;;;;;2.20;100.00;100755.83;1453275;90;21812;-80
2023/10/18 00:43:20;;;;;;;18.50;9.40;;;;;;;2.13;100.00;100763.64;1447939;90;21818;-78
2023/10/18 00:45:50;;;;;;;16.50;11.60;;;;;;;2.03;100.00;100764.60;1455301;90;22789;-78
2023/10/18 00:48:24;;;;;;;11.00;7.67;;;;;;;1.94;100.00;100760.36;1452472;90;21640;-78
2023/10/18 00:50:52;;;;;;;16.80;10.60;;;;;;;1.90;100.00;100760.13;1437758;90;22399;-78
2023/10/18 00:53:20;;;;;;;14.77;9.40;;;;;;;1.85;100.00;100756.95;1450895;90;21667;-78
2023/10/18 00:55:52;;;;;;;13.97;8.60;;;;;;;1.81;100.00;100753.64;1455028;90;21563;-79
2023/10/18 00:58:19;;;;;;;18.82;10.43;;;;;;;1.73;100.00;100748.86;1448286;90;21743;-79
2023/10/18 01:00:45;;;;;;;15.27;8.57;;;;;;;1.68;100.00;100743.52;1452246;90;21889;-79
2023/10/18 01:03:35;;;;;;;11.17;7.43;;;;;;;1.65;100.00;100748.43;1455007;90;21674;-79
2023/10/18 01:06:17;;;;;;;12.27;8.23;;;;;;;1.62;100.00;100756.42;1455353;90;21751;-79
2023/10/18 01:08:47;;;;;;;11.80;8.13;;;;;;;1.57;100.00;100757.12;1434117;90;22604;-79
2023/10/18 01:11:18;;;;;;;24.35;11.12;;;;;;;1.53;100.00;100755.62;1457162;90;21855;-80
2023/10/18 01:13:45;;;;;;;17.20;8.77;;;;;;;1.46;100.00;100749.03;1451603;90;21435;-79
2023/10/18 01:16:14;;;;;;;11.23;8.57;;;;;;;1.39;100.00;100759.42;1444983;90;21520;-79
2023/10/18 01:18:43;;;;;;;18.37;10.17;;;;;;;1.32;100.00;100757.14;1456982;89;21841;-79
2023/10/18 01:21:14;;;;;;;12.90;9.03;;;;;;;1.29;100.00;100758.57;1435131;90;21790;-79
2023/10/18 01:23:44;;;;;;;15.72;8.35;;;;;;;1.29;100.00;100754.66;1456410;90;21494;-78
2023/10/18 01:26:13;;;;;;;12.80;8.53;;;;;;;1.31;100.00;100747.61;1444336;90;22292;-79
2023/10/18 01:31:05;;;;;;;12.20;7.60;;;;;;;1.40;100.00;100746.75;1512853;85;25717;-78
2023/10/18 01:33:43;;;;;;;17.27;8.23;;;;;;;1.39;100.00;100750.29;1444041;91;22326;-78
2023/10/18 01:36:00;;;;;;;12.60;8.47;;;;;;;1.41;100.00;100748.42;1447302;90;21966;-79
2023/10/18 01:38:30;;;;;;;12.33;8.20;;;;;;;1.40;100.00;100754.10;1447168;91;21655;-79
2023/10/18 01:40:55;;;;;;;15.03;9.13;;;;;;;1.39;100.00;100756.81;1425118;90;21765;-78
2023/10/18 01:43:25;;;;;;;12.93;7.97;;;;;;;1.36;100.00;100753.90;1424958;91;21654;-79
2023/10/18 01:45:49;;;;;;;12.73;8.33;;;;;;;1.35;100.00;100746.98;1429585;91;21792;-79
2023/10/18 01:48:18;;;;;;;11.60;7.37;;;;;;;1.33;100.00;100743.16;1427285;91;22519;-79
2023/10/18 01:50:50;;;;;;;13.30;8.07;;;;;;;1.33;100.00;100753.59;1437448;91;21836;-83
2023/10/18 01:53:23;;;;;;;;;;;;;;;1.31;100.00;100747.61;1430994;91;21716;-82
2023/10/18 01:55:53;;;;;;;10.63;7.37;;;;;;;1.31;100.00;100758.04;1429044;90;20272;-80
2023/10/18 01:58:23;;;;;;;11.27;7.47;;;;;;;1.33;100.00;100758.81;1441101;89;21746;-80
2023/10/18 02:00:47;;;;;;;11.67;7.53;;;;;;;1.34;100.00;100757.88;1440603;89;22357;-80
2023/10/18 02:03:14;;;;;;;15.07;7.83;;;;;;;1.36;100.00;100761.72;1451080;89;21567;-82
2023/10/18 02:05:46;;;;;;;13.97;8.73;;;;;;;1.32;100.00;100754.53;1448700;89;22617;-82
2023/10/18 02:08:12;;;;;;;11.97;7.73;;;;;;;1.30;100.00;100751.15;1451311;89;21705;-82
2023/10/18 02:10:42;;;;;;;15.57;8.17;;;;;;;1.26;100.00;100744.39;1431146;90;21685;-82
2023/10/18 02:13:11;;;;;;;11.90;8.37;;;;;;;1.21;100.00;100753.38;1452668;90;22404;-82
2023/10/18 02:15:41;;;;;;;9.90;7.33;;;;;;;1.20;100.00;100743.41;1451604;89;21641;-82
2023/10/18 02:18:09;;;;;;;11.10;6.95;;;;;;;1.21;100.00;100749.03;1452369;89;21695;-82
2023/10/18 02:20:42;;;;;;;14.17;8.27;;;;;;;1.23;100.00;100753.68;1455414;89;21522;-82
2023/10/18 02:23:10;;;;;;;13.20;9.40;;;;;;;1.22;100.00;100745.48;1449800;89;21737;-81
2023/10/18 02:25:53;;;;;;;11.47;8.67;;;;;;;1.22;100.00;100742.88;1445273;90;21853;-81
2023/10/18 02:28:07;;;;;;;15.13;8.93;;;;;;;1.21;100.00;100741.64;1430331;90;21877;-80
2023/10/18 02:30:30;;;;;;;17.07;8.50;;;;;;;1.18;100.00;100743.98;1436413;90;21802;-81
2023/10/18 02:33:01;;;;;;;16.03;9.17;;;;;;;1.17;100.00;100750.56;1436234;89;21774;-82
2023/10/18 02:35:27;;;;;;;16.53;8.23;;;;;;;1.16;100.00;100751.49;1454742;89;23641;-82
2023/10/18 02:37:55;;;;;;;11.13;8.00;;;;;;;1.16;100.00;100744.51;1447997;88;21621;-81
2023/10/18 02:40:30;;;;;;;13.30;7.40;;;;;;;1.17;100.00;100739.66;1475725;88;21735;-82
2023/10/18 02:42:58;;;;;;;14.97;9.10;;;;;;;1.17;100.00;100730.54;1475468;88;21775;-81
2023/10/18 02:45:24;;;;;;;12.90;8.37;;;;;;;1.19;100.00;100731.78;1480863;88;21641;-81
2023/10/18 02:47:51;;;;;;;13.93;7.50;;;;;;;1.21;100.00;100731.21;1467116;88;21711;-82
2023/10/18 02:50:20;;;;;;;13.07;8.80;;;;;;;1.22;100.00;100728.54;1457202;89;21817;-82
2023/10/18 02:52:46;;;;;;;11.87;8.33;;;;;;;1.22;100.00;100727.70;1455822;89;21821;-82
2023/10/18 02:55:17;;;;;;;15.50;9.27;;;;;;;1.15;100.00;100727.16;1456402;89;21802;-81
2023/10/18 02:57:46;;;;;;;11.93;8.00;;;;;;;1.10;100.00;100726.12;1456704;89;21877;-81
2023/10/18 03:00:11;;;;;;;11.70;7.93;;;;;;;1.07;100.00;100722.83;1452532;89;21671;-81
2023/10/18 03:02:42;;;;;;;11.73;8.30;;;;;;;1.08;100.00;100727.11;1460771;89;21880;-81
2023/10/18 03:05:07;;;;;;;15.47;9.23;;;;;;;1.06;100.00;100726.34;1474618;88;22684;-81
2023/10/18 03:07:36;;;;;;;14.50;10.53;;;;;;;1.05;100.00;100731.19;1472030;88;21830;-81
2023/10/18 03:12:45;;;;;;;14.70;8.60;;;;;;;1.03;100.00;100722.13;1439331;89;21796;-83
2023/10/18 03:15:17;;;;;;;15.07;9.30;;;;;;;1.03;100.00;100726.50;1453993;89;21900;-83
2023/10/18 03:17:44;;;;;;;12.60;8.23;;;;;;;1.02;100.00;100730.05;1451814;89;22364;-80
2023/10/18 03:20:22;;;;;;;12.87;8.77;;;;;;;0.99;100.00;100730.20;1458704;89;21686;-80
2023/10/18 03:22:49;;;;;;;15.33;9.43;;;;;;;0.99;100.00;100729.73;1460698;88;21698;-81
2023/10/18 03:25:30;;;;;;;12.77;8.33;;;;;;;0.98;100.00;100732.41;1460694;89;21659;-81
2023/10/18 03:28:04;;;;;;;12.53;8.50;;;;;;;0.99;100.00;100730.20;1458049;89;23547;-80
2023/10/18 03:30:44;;;;;;;13.53;9.58;;;;;;;0.95;100.00;100731.27;1464346;88;22129;-79
2023/10/18 03:33:11;;;;;;;17.82;9.85;;;;;;;0.88;100.00;100727.67;1460745;88;21485;-81
2023/10/18 03:35:39;;;;;;;20.73;11.70;;;;;;;0.83;100.00;100730.12;1454474;89;21595;-81
2023/10/18 03:38:11;;;;;;;12.83;9.33;;;;;;;0.78;100.00;100725.17;1477342;88;21684;-80
2023/10/18 03:40:37;;;;;;;13.10;9.03;;;;;;;0.75;100.00;100730.53;1491856;87;21645;-81
2023/10/18 03:43:09;;;;;;;11.80;8.20;;;;;;;0.72;100.00;100728.09;1488301;87;21632;-81
2023/10/18 03:46:07;;;;;;;16.83;11.23;;;;;;;0.68;100.00;100733.05;1471824;88;21484;-81
2023/10/18 03:47:59;;;;;;;22.33;12.17;;;;;;;0.63;100.00;100729.83;1471268;88;22598;-81
2023/10/18 03:50:35;;;;;;;33.17;12.60;;;;;;;0.60;100.00;100732.59;1485538;88;21696;-80
2023/10/18 03:52:57;;;;;;;28.60;16.63;;;;;;;0.53;100.00;100727.31;1482846;88;21845;-80
2023/10/18 03:55:36;;;;;;;28.53;17.80;;;;;;;0.45;100.00;100722.01;1481934;88;21545;-80
2023/10/18 03:57:54;;;;;;;26.17;16.03;;;;;;;0.41;100.00;100736.58;1459074;88;21775;-81
2023/10/18 04:02:56;;;;;;;38.83;21.77;;;;;;;0.31;100.00;100723.14;1459498;88;21937;-81
2023/10/18 04:05:43;;;;;;;42.73;22.60;;;;;;;0.29;100.00;100721.53;1458372;89;22315;-82
2023/10/18 04:08:14;;;;;;;41.63;21.80;;;;;;;0.24;100.00;100717.87;1462036;88;22542;-81
2023/10/18 04:10:37;;;;;;;36.33;20.70;;;;;;;0.15;100.00;100711.81;1456310;89;22878;-81
2023/10/18 04:13:11;;;;;;;32.07;18.23;;;;;;;0.08;100.00;100713.01;1450459;89;21758;-80
2023/10/18 04:15:37;;;;;;;30.87;15.43;;;;;;;0.06;100.00;100722.64;1464940;88;21744;-80
2023/10/18 04:20:35;;;;;;;28.15;15.40;;;;;;;0.01;100.00;100729.84;1467511;88;21758;-81
2023/10/18 04:23:14;;;;;;;35.97;18.37;;;;;;;-0.04;100.00;100725.69;1450519;89;21391;-81
2023/10/18 04:25:30;;;;;;;39.43;19.30;;;;;;;-0.02;100.00;100726.93;1459661;89;21892;-81
2023/10/18 04:28:00;;;;;;;32.63;16.83;;;;;;;0.02;100.00;100725.02;1443865;89;21763;-82
2023/10/18 04:30:31;;;;;;;27.02;13.85;;;;;;;0.05;100.00;100723.56;1455656;88;21894;-79
2023/10/18 04:35:44;;;;;;;25.77;16.60;;;;;;;0.09;100.00;100725.96;1453402;88;21435;-81
2023/10/18 04:38:20;;;;;;;35.40;19.57;;;;;;;0.06;100.00;100722.64;1458973;89;22805;-79
2023/10/18 04:40:34;;;;;;;43.27;23.57;;;;;;;0.04;100.00;100721.89;1455915;89;21695;-81
2023/10/18 04:43:01;;;;;;;32.87;18.27;;;;;;;0.05;100.00;100724.87;1455005;89;22618;-79
2023/10/18 04:45:29;;;;;;;29.20;17.13;;;;;;;0.07;100.00;100722.58;1456637;89;21788;-81
2023/10/18 04:48:05;;;;;;;33.63;15.97;;;;;;;0.08;100.00;100722.12;1459626;88;22245;-80
2023/10/18 04:50:38;;;;;;;23.12;13.15;;;;;;;0.07;100.00;100727.78;1452352;89;22599;-81
2023/10/18 04:53:14;;;;;;;18.13;10.93;;;;;;;0.08;100.00;100731.23;1454125;89;22345;-81
2023/10/18 04:55:32;;;;;;;27.83;12.30;;;;;;;0.05;100.00;100729.61;1464311;89;22487;-80
2023/10/18 04:57:58;;;;;;;23.90;14.37;;;;;;;0.04;100.00;100735.74;1459019;89;22198;-80
2023/10/18 05:00:25;;;;;;;23.50;12.37;;;;;;;0.03;100.00;100743.61;1445956;89;21696;-80
2023/10/18 05:02:59;;;;;;;22.33;13.10;;;;;;;0.01;100.00;100747.60;1456003;89;22604;-81
2023/10/18 05:05:26;;;;;;;23.93;12.67;;;;;;;-0.01;100.00;100746.36;1453730;89;21741;-80
2023/10/18 05:07:54;;;;;;;26.87;14.07;;;;;;;-0.04;100.00;100746.50;1458024;89;21712;-81
2023/10/18 05:10:21;;;;;;;28.00;14.57;;;;;;;-0.04;100.00;100753.01;1462264;89;22455;-80
2023/10/18 05:13:01;;;;;;;29.07;13.70;;;;;;;-0.01;100.00;100748.95;1464137;88;21836;-80
2023/10/18 05:15:21;;;;;;;28.97;15.53;;;;;;;0.04;100.00;100750.52;1455472;89;21561;-80
2023/10/18 05:17:45;;;;;;;21.57;12.97;;;;;;;0.06;100.00;100753.87;1458133;89;21839;-81
2023/10/18 05:22:52;;;;;;;22.90;12.10;;;;;;;0.15;100.00;100760.80;1459697;89;21555;-79
2023/10/18 05:27:59;;;;;;;19.87;12.07;;;;;;;0.27;100.00;100764.58;1452283;89;21604;-81
2023/10/18 05:30:27;;;;;;;22.98;13.75;;;;;;;0.32;100.00;100765.21;1461500;88;22586;-80
2023/10/18 05:35:26;;;;;;;49.43;23.87;;;;;;;0.38;100.00;100780.53;1449537;90;21720;-79
2023/10/18 05:38:18;;;;;;;49.37;25.53;;;;;;;0.40;100.00;100776.53;1455974;89;21792;-80
2023/10/18 05:45:59;;;;;;;38.40;21.53;;;;;;;0.68;100.00;100761.24;1452642;89;21829;-85
2023/10/18 05:48:25;;;;;;;45.38;27.00;;;;;;;0.82;100.00;100761.02;1453993;89;21845;-84
2023/10/18 05:53:37;;;;;;;54.83;32.00;;;;;;;1.07;100.00;100759.33;1456511;90;21627;-84
2023/10/18 05:56:07;;;;;;;61.00;32.40;;;;;;;1.20;100.00;100756.45;1453881;90;22485;-84
2023/10/18 05:58:32;;;;;;;47.67;30.07;;;;;;;1.31;100.00;100760.64;1439250;89;21770;-79
2023/10/18 06:01:04;;;;;;;42.60;24.07;;;;;;;1.39;100.00;100756.34;1532985;89;21757;-80
2023/10/18 06:03:39;;;;;;;38.00;22.67;;;;;;;1.49;100.00;100761.44;1379677;89;21622;-83
2023/10/18 06:05:59;;;;;;;32.00;19.77;;;;;;;1.61;100.00;100767.77;1376922;89;21609;-80
2023/10/18 06:08:25;;;;;;;32.77;19.90;;;;;;;1.70;100.00;100769.91;1378695;89;21716;-80
2023/10/18 06:10:59;;;;;;;26.90;16.70;;;;;;;1.82;100.00;100775.39;1379584;90;21847;-82
2023/10/18 06:13:27;;;;;;;30.50;15.53;;;;;;;1.92;100.00;100785.70;1377483;89;22716;-82
2023/10/18 06:15:53;;;;;;;24.80;15.40;;;;;;;2.05;100.00;100794.55;1383808;89;21937;-82
2023/10/18 06:18:30;;;;;;;27.93;16.47;;;;;;;2.08;100.00;100785.25;1535617;89;21751;-80
2023/10/18 06:20:52;;;;;;;21.47;15.27;;;;;;;2.24;100.00;100790.01;1376416;90;21683;-81
2023/10/18 06:25:50;;;;;;;24.53;14.57;;;;;;;2.44;100.00;100778.88;1535403;89;22674;-80
2023/10/18 06:28:20;;;;;;;18.40;12.87;;;;;;;2.57;100.00;100788.19;1379745;89;21954;-80
2023/10/18 06:30:53;;;;;;;18.90;13.85;;;;;;;2.57;100.00;100788.19;1375062;88;22089;-80
2023/10/18 06:33:21;;;;;;;22.20;14.53;;;;;;;2.62;100.00;100781.77;1477507;89;21539;-81
2023/10/18 06:35:53;;;;;;;19.60;14.03;;;;;;;2.62;100.00;100781.77;1535577;89;22889;-79
2023/10/18 06:38:24;;;;;;;15.30;11.03;;;;;;;2.80;100.00;100775.10;1535575;90;22094;-84
2023/10/18 06:41:00;;;;;;;17.90;10.30;;;;;;;2.80;100.00;100775.10;1375142;89;22064;-81
2023/10/18 06:43:27;;;;;;;16.47;10.50;;;;;;;2.97;100.00;100779.34;1535421;90;21311;-82
2023/10/18 06:45:54;;;;;;;14.40;10.13;;;;;;;3.09;100.00;100776.84;1379360;89;22186;-80
2023/10/18 06:48:28;;;;;;;14.93;10.10;;;;;;;3.29;100.00;100778.73;1398413;90;22151;-85
2023/10/18 06:50:53;;;;;;;13.40;10.17;;;;;;;3.48;100.00;100787.61;1450820;89;22346;-83
2023/10/18 06:53:20;;;;;;;14.97;10.57;;;;;;;3.68;100.00;100790.52;1452824;89;22203;-82
2023/10/18 06:55:58;;;;;;;21.40;11.73;;;;;;;3.72;100.00;100786.59;1378737;90;21370;-83
2023/10/18 07:00:54;;;;;;;18.83;12.27;;;;;;;3.94;100.00;100781.70;1447350;89;22183;-83
2023/10/18 07:03:27;;;;;;;24.45;13.18;;;;;;;3.94;100.00;100781.70;1452969;89;21473;-83
2023/10/18 07:05:56;;;;;;;20.80;13.83;;;;;;;4.07;100.00;100786.52;1454557;90;21510;-83
2023/10/18 07:08:40;;;;;;;24.93;15.47;;;;;;;4.22;100.00;100787.80;1443646;90;21435;-82
2023/10/18 07:11:08;;;;;;;22.10;14.50;;;;;;;4.33;100.00;100786.64;1451568;89;21450;-82
2023/10/18 07:13:36;;;;;;;21.30;13.37;;;;;;;4.52;100.00;100784.52;1453060;89;21694;-81
2023/10/18 07:16:24;;;;;;;21.12;13.48;;;;;;;4.74;100.00;100783.93;1451152;89;22359;-81
2023/10/18 07:18:45;;;;;;;24.87;16.33;;;;;;;4.97;100.00;100786.33;1386779;89;21377;-83
2023/10/18 07:21:18;;;;;;;22.17;13.87;;;;;;;5.18;100.00;100784.55;1372187;90;21414;-81
2023/10/18 07:23:40;;;;;;;22.70;14.17;;;;;;;5.37;100.00;100784.95;1376373;89;22184;-81
2023/10/18 07:26:13;;;;;;;23.87;15.27;;;;;;;5.57;100.00;100786.67;1517133;90;21525;-81
2023/10/18 07:28:36;;;;;;;21.73;14.23;;;;;;;5.77;100.00;100788.74;1378154;90;21494;-82
2023/10/18 07:31:10;;;;;;;24.23;15.23;;;;;;;5.83;100.00;100790.93;1385448;88;22413;-82
2023/10/18 07:33:50;;;;;;;27.97;15.83;;;;;;;5.91;100.00;100786.46;1523824;89;22316;-79
2023/10/18 07:36:18;;;;;;;19.27;13.83;;;;;;;6.02;100.00;100791.83;1454033;89;22522;-80
2023/10/18 07:38:47;;;;;;;21.53;12.27;;;;;;;6.08;100.00;100794.49;1460829;89;21486;-81
2023/10/18 07:41:15;;;;;;;19.20;12.17;;;;;;;6.07;100.00;100796.73;1454450;89;21619;-82
2023/10/18 07:43:44;;;;;;;22.60;13.00;;;;;;;6.07;100.00;100790.16;1447998;89;21428;-81
2023/10/18 07:46:09;;;;;;;19.73;13.20;;;;;;;6.28;100.00;100783.38;1380869;89;21428;-80
2023/10/18 07:48:45;;;;;;;19.33;13.67;;;;;;;6.50;100.00;100779.17;1384805;89;21421;-82
2023/10/18 07:51:23;;;;;;;;;;;;;;;6.63;100.00;100779.95;1371549;90;21643;-81
2023/10/18 07:53:35;;;;;;;16.93;12.97;;;;;;;6.68;100.00;100776.52;1381505;89;20387;-81
2023/10/18 07:56:01;;;;;;;20.07;11.90;;;;;;;6.69;100.00;100770.29;1384140;89;21377;-82
2023/10/18 07:58:32;;;;;;;19.90;12.37;;;;;;;6.87;100.00;100760.17;1390729;89;21640;-80
2023/10/18 08:03:28;;;;;;;19.13;10.67;;;;;;;7.10;100.00;100753.17;1542335;89;21354;-81
2023/10/18 08:05:56;;;;;;;18.80;11.93;;;;;;;7.21;100.00;100755.81;1370865;90;21458;-82
2023/10/18 08:08:26;;;;;;;22.17;12.37;;;;;;;7.33;100.00;100747.45;1383680;89;21370;-81
2023/10/18 08:10:54;;;;;;;20.03;12.73;;;;;;;7.53;100.00;100753.80;1380408;89;21420;-82
2023/10/18 08:13:28;;;;;;;18.53;11.17;;;;;;;7.69;100.00;100752.13;1385856;89;21333;-80
2023/10/18 08:15:56;;;;;;;24.07;13.00;;;;;;;7.84;100.00;100756.66;1384367;89;22338;-80
2023/10/18 08:21:07;;;;;;;16.23;11.73;;;;;;;8.26;100.00;100745.80;1542349;88;21399;-81
2023/10/18 08:26:04;;;;;;;24.80;13.03;;;;;;;8.51;100.00;100743.31;1372172;90;21517;-80
2023/10/18 08:28:42;;;;;;;16.13;11.27;;;;;;;8.75;100.00;100737.82;1380425;88;21525;-83
2023/10/18 08:31:29;;;;;;;18.70;11.83;;;;;;;9.04;100.00;100741.96;1400483;89;21561;-83
2023/10/18 08:33:56;;;;;;;17.83;11.07;;;;;;;9.22;100.00;100735.59;1541496;89;21430;-82
2023/10/18 08:36:31;;;;;;;18.20;10.63;;;;;;;9.38;100.00;100735.13;1383933;88;21348;-83
2023/10/18 08:38:58;;;;;;;21.27;11.47;;;;;;;9.52;100.00;100739.69;1541613;88;21341;-81
2023/10/18 08:41:37;;;;;;;15.90;9.73;;;;;;;9.69;100.00;100739.88;1382896;88;21560;-79
2023/10/18 08:44:19;;;;;;;20.57;11.23;;;;;;;9.88;100.00;100743.08;1541426;89;21406;-82
2023/10/18 08:46:52;;;;;;;18.97;12.63;;;;;;;9.94;100.00;100742.53;1535355;89;22228;-78
2023/10/18 08:49:15;;;;;;;21.43;11.10;;;;;;;10.03;100.00;100738.23;1525418;89;22463;-82
2023/10/18 08:51:45;;;;;;;16.57;11.80;;;;;;;10.20;100.00;100738.05;1384447;89;21370;-81
2023/10/18 08:54:22;;;;;;;23.27;11.70;;;;;;;10.32;100.00;100731.68;1371303;90;21451;-82
2023/10/18 08:56:51;;;;;;;18.80;10.77;;;;;;;10.50;100.00;100730.98;1523013;88;22345;-83
2023/10/18 08:59:19;;;;;;;21.87;11.70;;;;;;;10.63;100.00;100734.20;1457954;88;22910;-82
2023/10/18 09:04:31;;;;;;;18.50;10.13;;;;;;;11.19;100.00;100726.79;1401888;93;21741;-80
2023/10/18 09:07:00;;;;;;;15.03;10.77;;;;;;;11.77;100.00;100728.81;1441966;89;21627;-82
2023/10/18 09:09:35;;;;;;;18.10;10.10;;;;;;;12.12;100.00;100731.58;1380648;88;21428;-81
2023/10/18 09:12:14;;;;;;;16.13;10.10;;;;;;;12.56;100.00;100730.33;1541536;89;21319;-80
2023/10/18 09:14:33;;;;;;;13.53;9.95;;;;;;;13.18;100.00;100730.28;1540619;89;21458;-80
2023/10/18 09:17:02;;;;;;;15.83;10.60;;;;;;;13.93;100.00;100733.64;1383075;89;21318;-83
2023/10/18 09:19:28;;;;;;;15.80;10.73;;;;;;;14.79;100.00;100726.61;1382271;89;21599;-81
2023/10/18 09:21:57;;;;;;;19.10;10.37;;;;;;;15.33;100.00;100730.84;1390419;88;21340;-82
2023/10/18 09:24:24;;;;;;;13.30;8.70;;;;;;;15.98;100.00;100731.59;1541539;89;22336;-83
2023/10/18 09:26:51;;;;;;;12.65;10.25;;;;;;;16.36;100.00;100729.02;1372011;90;21368;-82
2023/10/18 09:29:19;;;;;;;12.53;8.83;;;;;;;16.89;100.00;100727.28;1463395;89;21539;-82
2023/10/18 09:31:54;;;;;;;14.95;9.60;;;;;;;16.96;100.00;100719.36;1529087;88;21421;-80
2023/10/18 09:34:23;;;;;;;18.80;8.93;;;;;;;16.93;66.53;100726.41;1386628;89;21682;-80
2023/10/18 09:36:56;;;;;;;15.28;8.95;;;;;;;17.18;56.76;100721.14;1389022;89;21347;-82
2023/10/18 09:39:37;;;;;;;12.85;8.03;;;;;;;17.25;58.76;100729.25;1541541;89;21347;-80
2023/10/18 09:42:15;;;;;;;12.20;8.10;;;;;;;17.58;54.94;100726.53;1541531;89;21399;-81
2023/10/18 09:44:42;;;;;;;17.73;9.30;;;;;;;17.94;57.12;100727.09;1541695;89;21414;-83
2023/10/18 09:47:09;;;;;;;11.55;8.00;;;;;;;18.80;55.72;100720.42;1383675;89;21369;-83
2023/10/18 09:49:40;;;;;;;15.10;8.13;;;;;;;18.80;55.72;100720.42;1383333;89;21594;-82
2023/10/18 09:52:11;;;;;;;9.55;7.78;;;;;;;19.07;52.66;100716.07;1541576;89;21385;-82
2023/10/18 09:54:39;;;;;;;17.65;8.28;;;;;;;19.21;51.68;100715.64;1373849;90;22405;-81
2023/10/18 09:57:06;;;;;;;11.68;7.78;;;;;;;19.26;51.18;100705.67;1370558;90;21555;-81
2023/10/18 09:59:37;;;;;;;9.20;7.15;;;;;;;19.39;49.73;100703.05;1523511;89;22256;-82
2023/10/18 10:02:09;;;;;;;10.20;6.72;;;;;;;19.39;46.02;100703.90;1413444;89;22455;-82
2023/10/18 10:04:36;;;;;;;17.30;7.05;;;;;;;19.48;47.25;100694.31;1460157;89;21442;-83
2023/10/18 10:09:50;;;;;;;10.43;6.65;;;;;;;19.74;46.43;100695.00;1385287;89;22205;-83
2023/10/18 10:12:18;;;;;;;14.15;7.70;;;;;;;19.81;45.69;100686.43;1382878;89;21576;-80
2023/10/18 10:14:46;;;;;;;13.78;6.53;;;;;;;19.80;44.31;100681.58;1400725;89;21496;-81
2023/10/18 10:17:20;;;;;;;8.68;5.60;;;;;;;19.80;44.47;100679.41;1383508;89;21361;-81
2023/10/18 10:19:51;;;;;;;11.35;5.45;;;;;;;19.33;39.31;100677.86;1376195;90;21385;-80
2023/10/18 10:22:23;;;;;;;11.30;5.65;;;;;;;18.83;41.19;100673.11;1541321;89;21414;-82
2023/10/18 10:24:52;;;;;;;;;;;;;;;17.90;41.73;100676.28;1541161;89;21443;-81
2023/10/18 10:32:59;;;;;;;12.82;6.55;;;;;;;17.11;43.61;100657.36;1391041;88;21428;-81
2023/10/18 10:35:27;;;;;;;9.83;5.70;;;;;;;16.89;42.62;100653.77;1407700;89;21494;-83
2023/10/18 10:38:13;;;;;;;9.65;7.10;;;;;;;16.59;44.56;100650.19;1381281;89;21391;-83
2023/10/18 10:40:43;;;;;;;9.93;6.90;;;;;;;16.55;44.60;100651.06;1381275;91;21711;-81
2023/10/18 10:43:10;;;;;;;12.90;7.30;;;;;;;16.65;44.56;100648.12;1507655;91;21483;-80
2023/10/18 10:48:36;;;;;;;15.32;7.85;;;;;;;16.99;44.10;100638.27;1507830;91;21387;-83
2023/10/18 10:51:06;;;;;;;13.03;6.28;;;;;;;17.10;43.81;100639.15;1393868;91;21475;-79
2023/10/18 10:53:44;;;;;;;9.28;6.67;;;;;;;17.18;43.86;100624.04;1479809;91;21660;-83
2023/10/18 10:56:27;;;;;;;12.15;6.95;;;;;;;17.34;43.66;100627.83;1487563;91;21416;-82
2023/10/18 11:04:28;;;;;;;14.00;7.70;;;;;;;17.44;41.91;100617.67;1507968;91;21482;-80
2023/10/18 11:06:57;;;;;;;13.48;6.65;;;;;;;17.33;41.93;100622.16;1507822;91;21357;-82
2023/10/18 11:09:38;;;;;;;9.43;5.72;;;;;;;17.05;42.46;100613.98;1360118;91;21342;-81
2023/10/18 11:12:10;;;;;;;9.15;6.25;;;;;;;16.93;42.51;100610.94;1354200;92;21538;-81
2023/10/18 11:14:37;;;;;;;7.03;5.60;;;;;;;16.73;42.84;100613.30;1507659;91;21313;-83
2023/10/18 11:17:25;;;;;;;15.03;6.92;;;;;;;16.63;42.46;100612.72;1356228;91;22193;-79
2023/10/18 11:19:32;;;;;;;11.18;6.30;;;;;;;16.51;42.00;100608.33;1504764;91;22296;-81
2023/10/18 11:21:58;;;;;;;13.58;6.30;;;;;;;16.44;42.77;100606.91;1357139;91;21371;-83
2023/10/18 11:24:27;;;;;;;8.80;6.15;;;;;;;16.54;43.05;100602.63;1356736;91;21601;-82
2023/10/18 11:26:53;;;;;;;10.58;6.00;;;;;;;16.61;42.99;100599.56;1359285;91;21563;-82
2023/10/18 11:29:25;;;;;;;8.23;5.58;;;;;;;16.62;39.66;100593.70;1356947;91;22327;-82
2023/10/18 11:31:58;;;;;;;10.30;6.37;;;;;;;16.53;41.90;100588.95;1486618;91;21483;-81
2023/10/18 11:34:27;;;;;;;11.15;5.40;;;;;;;16.51;42.07;100585.63;1481408;91;22345;-82
2023/10/18 11:37:01;;;;;;;9.05;5.25;;;;;;;16.71;43.20;100579.23;1339159;92;21335;-82
2023/10/18 11:39:29;;;;;;;9.98;6.40;;;;;;;17.04;43.02;100582.41;1349505;92;22429;-80
2023/10/18 11:41:56;;;;;;;13.65;5.80;;;;;;;17.27;41.18;100579.60;1349753;91;22362;-82
2023/10/18 11:44:31;;;;;;;10.70;5.90;;;;;;;17.47;41.52;100579.01;1419836;91;21556;-82
2023/10/18 11:47:11;;;;;;;10.68;5.97;;;;;;;17.62;41.62;100577.11;1424658;91;21699;-81
2023/10/18 11:49:40;;;;;;;10.75;6.78;;;;;;;17.44;40.83;100582.89;1482825;91;22229;-81
2023/10/18 11:52:16;;;;;;;8.73;5.62;;;;;;;17.33;39.69;100576.69;1493445;92;21378;-82
2023/10/18 11:54:45;;;;;;;9.48;5.75;;;;;;;17.19;39.93;100578.88;1501706;92;21528;-82
2023/10/18 11:57:39;;;;;;;9.30;5.78;;;;;;;16.98;39.31;100578.31;1483492;92;21408;-82
2023/10/18 12:02:47;;;;;;;11.33;5.35;;;;;;;16.71;40.29;100567.21;1488211;92;21328;-82
2023/10/18 12:05:23;;;;;;;8.13;4.62;;;;;;;16.68;40.27;100562.23;1351688;92;21541;-82
2023/10/18 12:07:53;;;;;;;11.78;5.17;;;;;;;16.82;38.56;100560.61;1480049;92;21579;-80
2023/10/18 12:10:25;;;;;;;10.90;5.85;;;;;;;16.74;40.39;100558.00;1349169;92;21461;-83
2023/10/18 12:12:55;;;;;;;10.03;5.40;;;;;;;16.96;40.22;100561.11;1501674;91;21298;-83
2023/10/18 12:15:25;;;;;;;10.45;5.55;;;;;;;16.91;37.38;100555.48;1357523;91;21564;-82
2023/10/18 12:17:49;;;;;;;9.38;5.92;;;;;;;17.10;40.57;100552.23;1485575;92;21542;-81
2023/10/18 12:20:15;;;;;;;11.12;5.92;;;;;;;17.44;40.66;100553.45;1352337;92;22194;-82
2023/10/18 12:22:42;;;;;;;10.60;5.20;;;;;;;17.77;39.83;100552.95;1351837;92;21424;-82
2023/10/18 12:25:09;;;;;;;8.43;5.30;;;;;;;18.01;39.78;100539.70;1356779;92;22503;-82
2023/10/18 12:27:35;;;;;;;8.93;6.17;;;;;;;18.27;39.07;100539.10;1351860;92;21498;-84
2023/10/18 12:30:27;;;;;;;7.25;5.20;;;;;;;18.40;37.89;100539.17;1352210;91;21490;-80